sensor_id;sensor_type;location;lat;lon;timestamp;P1;durP1;ratioP1;P2;durP2;ratioP2
8102;SDS011;4094;49.948;11.574;2023-09-08T00:01:16;6.90;;;6.40;;
8102;SDS011;4094;49.948;11.574;2023-09-08T00:03:45;7.03;;;6.33;;
8102;SDS011;4094;49.948;11.574;2023-09-08T00:06:14;7.07;;;6.40;;
8102;SDS011;4094;49.948;11.574;2023-09-08T00:08:43;6.07;;;5.67;;
8102;SDS011;4094;49.948;11.574;2023-09-08T00:11:12;8.03;;;6.30;;
8102;SDS011;4094;49.948;11.574;2023-09-08T00:13:42;6.43;;;5.93;;
8102;SDS011;4094;49.948;11.574;2023-09-08T00:16:11;6.40;;;6.00;;
8102;SDS011;4094;49.948;11.574;2023-09-08T00:18:40;7.00;;;6.50;;
8102;SDS011;4094;49.948;11.574;2023-09-08T00:21:09;6.80;;;6.10;;
8102;SDS011;4094;49.948;11.574;2023-09-08T00:23:38;7.00;;;6.50;;
8102;SDS011;4094;49.948;11.574;2023-09-08T00:26:07;7.23;;;6.63;;
8102;SDS011;4094;49.948;11.574;2023-09-08T00:28:38;7.27;;;6.60;;
8102;SDS011;4094;49.948;11.574;2023-09-08T00:31:08;7.00;;;6.17;;
8102;SDS011;4094;49.948;11.574;2023-09-08T00:33:37;7.43;;;6.73;;
8102;SDS011;4094;49.948;11.574;2023-09-08T00:36:08;6.43;;;5.93;;
8102;SDS011;4094;49.948;11.574;2023-09-08T00:38:37;6.73;;;6.13;;
8102;SDS011;4094;49.948;11.574;2023-09-08T00:41:06;6.87;;;6.30;;
8102;SDS011;4094;49.948;11.574;2023-09-08T00:43:36;6.60;;;6.10;;
8102;SDS011;4094;49.948;11.574;2023-09-08T00:46:05;6.60;;;6.20;;
8102;SDS011;4094;49.948;11.574;2023-09-08T00:48:36;7.23;;;6.60;;
8102;SDS011;4094;49.948;11.574;2023-09-08T00:51:06;7.00;;;6.43;;
8102;SDS011;4094;49.948;11.574;2023-09-08T00:53:37;6.93;;;6.37;;
8102;SDS011;4094;49.948;11.574;2023-09-08T00:56:06;7.03;;;6.33;;
8102;SDS011;4094;49.948;11.574;2023-09-08T00:58:37;6.33;;;5.73;;
8102;SDS011;4094;49.948;11.574;2023-09-08T01:01:06;7.27;;;6.50;;
8102;SDS011;4094;49.948;11.574;2023-09-08T01:03:36;7.03;;;6.40;;
8102;SDS011;4094;49.948;11.574;2023-09-08T01:06:06;7.10;;;6.40;;
8102;SDS011;4094;49.948;11.574;2023-09-08T01:08:35;6.93;;;6.43;;
8102;SDS011;4094;49.948;11.574;2023-09-08T01:11:05;7.20;;;6.60;;
8102;SDS011;4094;49.948;11.574;2023-09-08T01:13:35;6.87;;;6.37;;
8102;SDS011;4094;49.948;11.574;2023-09-08T01:16:04;7.83;;;7.03;;
8102;SDS011;4094;49.948;11.574;2023-09-08T01:18:34;7.03;;;6.43;;
8102;SDS011;4094;49.948;11.574;2023-09-08T01:21:10;8.60;;;6.30;;
8102;SDS011;4094;49.948;11.574;2023-09-08T01:23:56;7.20;;;6.50;;
8102;SDS011;4094;49.948;11.574;2023-09-08T01:26:41;9.20;;;7.00;;
8102;SDS011;4094;49.948;11.574;2023-09-08T01:29:10;7.90;;;7.20;;
8102;SDS011;4094;49.948;11.574;2023-09-08T01:31:40;7.80;;;7.20;;
8102;SDS011;4094;49.948;11.574;2023-09-08T01:34:10;11.10;;;7.70;;
8102;SDS011;4094;49.948;11.574;2023-09-08T01:36:40;7.97;;;7.27;;
8102;SDS011;4094;49.948;11.574;2023-09-08T01:39:09;7.67;;;6.97;;
8102;SDS011;4094;49.948;11.574;2023-09-08T01:41:38;7.50;;;6.90;;
8102;SDS011;4094;49.948;11.574;2023-09-08T01:44:09;9.80;;;7.07;;
8102;SDS011;4094;49.948;11.574;2023-09-08T01:46:39;8.10;;;7.40;;
8102;SDS011;4094;49.948;11.574;2023-09-08T01:49:08;7.70;;;6.90;;
8102;SDS011;4094;49.948;11.574;2023-09-08T01:51:37;8.03;;;7.23;;
8102;SDS011;4094;49.948;11.574;2023-09-08T01:54:07;7.30;;;6.60;;
8102;SDS011;4094;49.948;11.574;2023-09-08T01:56:38;7.73;;;6.90;;
8102;SDS011;4094;49.948;11.574;2023-09-08T01:59:09;12.40;;;7.43;;
8102;SDS011;4094;49.948;11.574;2023-09-08T02:01:38;8.10;;;7.27;;
8102;SDS011;4094;49.948;11.574;2023-09-08T02:04:08;7.83;;;6.70;;
8102;SDS011;4094;49.948;11.574;2023-09-08T02:06:37;10.47;;;7.30;;
8102;SDS011;4094;49.948;11.574;2023-09-08T02:09:07;8.30;;;7.50;;
8102;SDS011;4094;49.948;11.574;2023-09-08T02:11:37;11.23;;;7.87;;
8102;SDS011;4094;49.948;11.574;2023-09-08T02:14:06;7.70;;;6.93;;
8102;SDS011;4094;49.948;11.574;2023-09-08T02:16:37;8.27;;;7.47;;
8102;SDS011;4094;49.948;11.574;2023-09-08T02:19:07;8.53;;;7.60;;
8102;SDS011;4094;49.948;11.574;2023-09-08T02:21:37;7.70;;;7.00;;
8102;SDS011;4094;49.948;11.574;2023-09-08T02:24:06;9.73;;;7.03;;
8102;SDS011;4094;49.948;11.574;2023-09-08T02:26:36;8.20;;;7.40;;
8102;SDS011;4094;49.948;11.574;2023-09-08T02:29:06;8.97;;;7.50;;
8102;SDS011;4094;49.948;11.574;2023-09-08T02:31:37;10.43;;;7.70;;
8102;SDS011;4094;49.948;11.574;2023-09-08T02:34:08;9.20;;;7.73;;
8102;SDS011;4094;49.948;11.574;2023-09-08T02:36:39;13.43;;;8.03;;
8102;SDS011;4094;49.948;11.574;2023-09-08T02:39:09;7.67;;;7.03;;
8102;SDS011;4094;49.948;11.574;2023-09-08T02:41:39;7.27;;;6.53;;
8102;SDS011;4094;49.948;11.574;2023-09-08T02:44:09;7.17;;;6.50;;
8102;SDS011;4094;49.948;11.574;2023-09-08T02:46:38;8.73;;;7.27;;
8102;SDS011;4094;49.948;11.574;2023-09-08T02:49:09;11.80;;;8.20;;
8102;SDS011;4094;49.948;11.574;2023-09-08T02:51:38;8.20;;;7.40;;
8102;SDS011;4094;49.948;11.574;2023-09-08T02:54:07;8.43;;;7.60;;
8102;SDS011;4094;49.948;11.574;2023-09-08T02:56:37;8.43;;;7.60;;
8102;SDS011;4094;49.948;11.574;2023-09-08T02:59:06;9.23;;;8.37;;
8102;SDS011;4094;49.948;11.574;2023-09-08T03:01:38;8.80;;;8.00;;
8102;SDS011;4094;49.948;11.574;2023-09-08T03:04:07;8.97;;;8.07;;
8102;SDS011;4094;49.948;11.574;2023-09-08T03:06:36;8.93;;;8.07;;
8102;SDS011;4094;49.948;11.574;2023-09-08T03:09:05;10.60;;;8.00;;
8102;SDS011;4094;49.948;11.574;2023-09-08T03:11:34;8.20;;;7.43;;
8102;SDS011;4094;49.948;11.574;2023-09-08T03:14:04;8.83;;;7.93;;
8102;SDS011;4094;49.948;11.574;2023-09-08T03:16:33;9.73;;;7.80;;
8102;SDS011;4094;49.948;11.574;2023-09-08T03:19:05;8.70;;;7.90;;
8102;SDS011;4094;49.948;11.574;2023-09-08T03:21:34;8.90;;;8.00;;
8102;SDS011;4094;49.948;11.574;2023-09-08T03:24:04;7.97;;;7.27;;
8102;SDS011;4094;49.948;11.574;2023-09-08T03:26:33;8.50;;;7.50;;
8102;SDS011;4094;49.948;11.574;2023-09-08T03:29:02;8.50;;;7.70;;
8102;SDS011;4094;49.948;11.574;2023-09-08T03:31:32;9.30;;;8.13;;
8102;SDS011;4094;49.948;11.574;2023-09-08T03:34:01;10.97;;;8.03;;
8102;SDS011;4094;49.948;11.574;2023-09-08T03:36:31;8.00;;;7.30;;
8102;SDS011;4094;49.948;11.574;2023-09-08T03:39:04;8.57;;;7.67;;
8102;SDS011;4094;49.948;11.574;2023-09-08T03:41:33;10.63;;;7.70;;
8102;SDS011;4094;49.948;11.574;2023-09-08T03:44:02;7.83;;;7.23;;
8102;SDS011;4094;49.948;11.574;2023-09-08T03:46:31;8.20;;;7.57;;
8102;SDS011;4094;49.948;11.574;2023-09-08T03:49:00;8.20;;;7.50;;
8102;SDS011;4094;49.948;11.574;2023-09-08T03:51:29;8.33;;;7.67;;
8102;SDS011;4094;49.948;11.574;2023-09-08T03:54:00;10.27;;;8.07;;
8102;SDS011;4094;49.948;11.574;2023-09-08T03:56:30;8.83;;;7.97;;
8102;SDS011;4094;49.948;11.574;2023-09-08T03:58:59;9.00;;;8.20;;
8102;SDS011;4094;49.948;11.574;2023-09-08T04:01:28;8.50;;;7.80;;
8102;SDS011;4094;49.948;11.574;2023-09-08T04:03:57;8.27;;;7.57;;
8102;SDS011;4094;49.948;11.574;2023-09-08T04:06:26;8.83;;;8.03;;
8102;SDS011;4094;49.948;11.574;2023-09-08T04:08:57;8.97;;;8.17;;
8102;SDS011;4094;49.948;11.574;2023-09-08T04:11:26;8.53;;;7.93;;
8102;SDS011;4094;49.948;11.574;2023-09-08T04:13:56;9.57;;;8.77;;
8102;SDS011;4094;49.948;11.574;2023-09-08T04:16:26;8.87;;;8.10;;
8102;SDS011;4094;49.948;11.574;2023-09-08T04:18:55;9.03;;;8.30;;
8102;SDS011;4094;49.948;11.574;2023-09-08T04:21:24;8.43;;;7.83;;
8102;SDS011;4094;49.948;11.574;2023-09-08T04:23:54;9.20;;;8.37;;
8102;SDS011;4094;49.948;11.574;2023-09-08T04:26:24;8.53;;;7.83;;
8102;SDS011;4094;49.948;11.574;2023-09-08T04:28:53;9.10;;;8.20;;
8102;SDS011;4094;49.948;11.574;2023-09-08T04:31:22;8.40;;;7.80;;
8102;SDS011;4094;49.948;11.574;2023-09-08T04:33:52;8.93;;;8.23;;
8102;SDS011;4094;49.948;11.574;2023-09-08T04:36:22;8.93;;;8.23;;
8102;SDS011;4094;49.948;11.574;2023-09-08T04:38:51;9.23;;;8.43;;
8102;SDS011;4094;49.948;11.574;2023-09-08T04:41:20;8.77;;;7.97;;
8102;SDS011;4094;49.948;11.574;2023-09-08T04:43:52;8.80;;;8.10;;
8102;SDS011;4094;49.948;11.574;2023-09-08T04:46:23;8.70;;;8.00;;
8102;SDS011;4094;49.948;11.574;2023-09-08T04:48:53;8.97;;;8.13;;
8102;SDS011;4094;49.948;11.574;2023-09-08T04:51:23;8.47;;;7.87;;
8102;SDS011;4094;49.948;11.574;2023-09-08T04:53:52;8.57;;;7.93;;
8102;SDS011;4094;49.948;11.574;2023-09-08T04:56:22;8.27;;;7.57;;
8102;SDS011;4094;49.948;11.574;2023-09-08T04:58:52;8.17;;;7.43;;
8102;SDS011;4094;49.948;11.574;2023-09-08T05:01:24;8.43;;;7.83;;
8102;SDS011;4094;49.948;11.574;2023-09-08T05:03:54;8.57;;;7.77;;
8102;SDS011;4094;49.948;11.574;2023-09-08T05:06:23;8.93;;;8.20;;
8102;SDS011;4094;49.948;11.574;2023-09-08T05:08:53;8.23;;;7.53;;
8102;SDS011;4094;49.948;11.574;2023-09-08T05:11:24;9.00;;;8.20;;
8102;SDS011;4094;49.948;11.574;2023-09-08T05:13:54;9.10;;;8.30;;
8102;SDS011;4094;49.948;11.574;2023-09-08T05:16:25;8.80;;;8.10;;
8102;SDS011;4094;49.948;11.574;2023-09-08T05:19:06;8.67;;;7.97;;
8102;SDS011;4094;49.948;11.574;2023-09-08T05:21:36;9.03;;;8.33;;
8102;SDS011;4094;49.948;11.574;2023-09-08T05:24:06;8.90;;;8.10;;
8102;SDS011;4094;49.948;11.574;2023-09-08T05:26:37;9.00;;;8.30;;
8102;SDS011;4094;49.948;11.574;2023-09-08T05:29:08;9.60;;;8.70;;
8102;SDS011;4094;49.948;11.574;2023-09-08T05:31:37;9.23;;;8.50;;
8102;SDS011;4094;49.948;11.574;2023-09-08T05:34:07;9.60;;;8.60;;
8102;SDS011;4094;49.948;11.574;2023-09-08T05:36:37;9.17;;;8.00;;
8102;SDS011;4094;49.948;11.574;2023-09-08T05:39:08;8.43;;;7.83;;
8102;SDS011;4094;49.948;11.574;2023-09-08T05:41:37;8.70;;;8.00;;
8102;SDS011;4094;49.948;11.574;2023-09-08T05:44:09;9.20;;;8.40;;
8102;SDS011;4094;49.948;11.574;2023-09-08T05:46:38;9.13;;;8.17;;
8102;SDS011;4094;49.948;11.574;2023-09-08T05:49:08;9.23;;;8.43;;
8102;SDS011;4094;49.948;11.574;2023-09-08T05:51:37;9.07;;;8.17;;
8102;SDS011;4094;49.948;11.574;2023-09-08T05:54:06;9.27;;;8.50;;
8102;SDS011;4094;49.948;11.574;2023-09-08T05:56:36;9.80;;;8.63;;
8102;SDS011;4094;49.948;11.574;2023-09-08T05:59:06;12.23;;;8.73;;
8102;SDS011;4094;49.948;11.574;2023-09-08T06:01:36;9.37;;;8.33;;
8102;SDS011;4094;49.948;11.574;2023-09-08T06:04:08;8.87;;;8.10;;
8102;SDS011;4094;49.948;11.574;2023-09-08T06:06:38;9.40;;;8.50;;
8102;SDS011;4094;49.948;11.574;2023-09-08T06:09:07;9.27;;;8.40;;
8102;SDS011;4094;49.948;11.574;2023-09-08T06:11:39;8.87;;;8.13;;
8102;SDS011;4094;49.948;11.574;2023-09-08T06:14:10;8.87;;;8.23;;
8102;SDS011;4094;49.948;11.574;2023-09-08T06:16:43;9.30;;;8.60;;
8102;SDS011;4094;49.948;11.574;2023-09-08T06:19:12;9.10;;;8.40;;
8102;SDS011;4094;49.948;11.574;2023-09-08T06:21:42;8.43;;;7.60;;
8102;SDS011;4094;49.948;11.574;2023-09-08T06:24:12;8.47;;;7.77;;
8102;SDS011;4094;49.948;11.574;2023-09-08T06:26:41;8.80;;;8.00;;
8102;SDS011;4094;49.948;11.574;2023-09-08T06:29:10;9.30;;;8.40;;
8102;SDS011;4094;49.948;11.574;2023-09-08T06:31:40;9.07;;;8.33;;
8102;SDS011;4094;49.948;11.574;2023-09-08T06:34:10;9.03;;;8.23;;
8102;SDS011;4094;49.948;11.574;2023-09-08T06:36:40;8.47;;;7.77;;
8102;SDS011;4094;49.948;11.574;2023-09-08T06:39:09;8.37;;;7.60;;
8102;SDS011;4094;49.948;11.574;2023-09-08T06:41:38;8.13;;;7.43;;
8102;SDS011;4094;49.948;11.574;2023-09-08T06:44:10;8.60;;;7.90;;
8102;SDS011;4094;49.948;11.574;2023-09-08T06:46:39;8.53;;;7.53;;
8102;SDS011;4094;49.948;11.574;2023-09-08T06:49:08;7.70;;;7.10;;
8102;SDS011;4094;49.948;11.574;2023-09-08T06:51:39;7.60;;;7.00;;
8102;SDS011;4094;49.948;11.574;2023-09-08T06:54:08;7.87;;;7.27;;
8102;SDS011;4094;49.948;11.574;2023-09-08T06:56:41;8.27;;;7.57;;
8102;SDS011;4094;49.948;11.574;2023-09-08T06:59:11;8.37;;;7.57;;
8102;SDS011;4094;49.948;11.574;2023-09-08T07:01:40;8.17;;;7.37;;
8102;SDS011;4094;49.948;11.574;2023-09-08T07:04:12;9.00;;;7.43;;
8102;SDS011;4094;49.948;11.574;2023-09-08T07:06:41;7.80;;;7.10;;
8102;SDS011;4094;49.948;11.574;2023-09-08T07:09:12;8.30;;;7.60;;
8102;SDS011;4094;49.948;11.574;2023-09-08T07:11:42;7.33;;;6.70;;
8102;SDS011;4094;49.948;11.574;2023-09-08T07:14:12;7.87;;;7.03;;
8102;SDS011;4094;49.948;11.574;2023-09-08T07:16:41;7.23;;;6.60;;
8102;SDS011;4094;49.948;11.574;2023-09-08T07:19:11;6.73;;;6.13;;
8102;SDS011;4094;49.948;11.574;2023-09-08T07:21:41;7.37;;;6.70;;
8102;SDS011;4094;49.948;11.574;2023-09-08T07:24:10;6.90;;;6.40;;
8102;SDS011;4094;49.948;11.574;2023-09-08T07:26:41;6.97;;;6.40;;
8102;SDS011;4094;49.948;11.574;2023-09-08T07:29:10;7.40;;;6.63;;
8102;SDS011;4094;49.948;11.574;2023-09-08T07:31:39;6.97;;;6.27;;
8102;SDS011;4094;49.948;11.574;2023-09-08T07:34:08;6.73;;;5.97;;
8102;SDS011;4094;49.948;11.574;2023-09-08T07:36:39;7.20;;;6.40;;
8102;SDS011;4094;49.948;11.574;2023-09-08T07:39:08;7.27;;;5.77;;
8102;SDS011;4094;49.948;11.574;2023-09-08T07:41:37;7.33;;;5.63;;
8102;SDS011;4094;49.948;11.574;2023-09-08T07:44:10;6.60;;;6.00;;
8102;SDS011;4094;49.948;11.574;2023-09-08T07:46:41;6.20;;;5.60;;
8102;SDS011;4094;49.948;11.574;2023-09-08T07:49:11;6.47;;;5.87;;
8102;SDS011;4094;49.948;11.574;2023-09-08T07:51:43;7.20;;;5.30;;
8102;SDS011;4094;49.948;11.574;2023-09-08T07:54:12;6.17;;;5.57;;
8102;SDS011;4094;49.948;11.574;2023-09-08T07:56:42;6.00;;;5.40;;
8102;SDS011;4094;49.948;11.574;2023-09-08T07:59:11;5.53;;;5.00;;
8102;SDS011;4094;49.948;11.574;2023-09-08T08:01:40;5.70;;;5.00;;
8102;SDS011;4094;49.948;11.574;2023-09-08T08:04:09;5.43;;;4.80;;
8102;SDS011;4094;49.948;11.574;2023-09-08T08:06:39;5.37;;;4.87;;
8102;SDS011;4094;49.948;11.574;2023-09-08T08:09:10;7.03;;;5.10;;
8102;SDS011;4094;49.948;11.574;2023-09-08T08:11:39;4.80;;;4.40;;
8102;SDS011;4094;49.948;11.574;2023-09-08T08:14:08;5.50;;;4.87;;
8102;SDS011;4094;49.948;11.574;2023-09-08T08:16:37;5.10;;;4.60;;
8102;SDS011;4094;49.948;11.574;2023-09-08T08:19:06;5.70;;;4.60;;
8102;SDS011;4094;49.948;11.574;2023-09-08T08:21:36;5.10;;;4.60;;
8102;SDS011;4094;49.948;11.574;2023-09-08T08:24:05;7.47;;;5.17;;
8102;SDS011;4094;49.948;11.574;2023-09-08T08:26:36;5.20;;;4.70;;
8102;SDS011;4094;49.948;11.574;2023-09-08T08:29:05;5.13;;;4.03;;
8102;SDS011;4094;49.948;11.574;2023-09-08T08:31:34;4.60;;;4.20;;
8102;SDS011;4094;49.948;11.574;2023-09-08T08:34:03;6.23;;;4.17;;
8102;SDS011;4094;49.948;11.574;2023-09-08T08:36:32;4.73;;;4.33;;
8102;SDS011;4094;49.948;11.574;2023-09-08T08:39:02;4.83;;;4.30;;
8102;SDS011;4094;49.948;11.574;2023-09-08T08:41:33;5.60;;;4.50;;
8102;SDS011;4094;49.948;11.574;2023-09-08T08:44:07;5.20;;;4.40;;
8102;SDS011;4094;49.948;11.574;2023-09-08T08:46:37;5.53;;;4.47;;
8102;SDS011;4094;49.948;11.574;2023-09-08T08:49:07;4.60;;;4.20;;
8102;SDS011;4094;49.948;11.574;2023-09-08T08:51:38;4.97;;;4.50;;
8102;SDS011;4094;49.948;11.574;2023-09-08T08:54:10;5.00;;;3.80;;
8102;SDS011;4094;49.948;11.574;2023-09-08T08:56:41;6.03;;;4.20;;
8102;SDS011;4094;49.948;11.574;2023-09-08T08:59:12;4.33;;;3.97;;
8102;SDS011;4094;49.948;11.574;2023-09-08T09:01:42;5.30;;;4.33;;
8102;SDS011;4094;49.948;11.574;2023-09-08T09:04:11;4.23;;;3.73;;
8102;SDS011;4094;49.948;11.574;2023-09-08T09:06:42;4.83;;;4.10;;
8102;SDS011;4094;49.948;11.574;2023-09-08T09:09:11;5.80;;;3.93;;
8102;SDS011;4094;49.948;11.574;2023-09-08T09:11:41;4.07;;;3.67;;
8102;SDS011;4094;49.948;11.574;2023-09-08T09:14:10;4.83;;;4.43;;
8102;SDS011;4094;49.948;11.574;2023-09-08T09:16:41;4.50;;;4.10;;
8102;SDS011;4094;49.948;11.574;2023-09-08T09:19:17;4.87;;;4.30;;
8102;SDS011;4094;49.948;11.574;2023-09-08T09:21:53;4.90;;;4.47;;
8102;SDS011;4094;49.948;11.574;2023-09-08T09:24:30;4.10;;;3.80;;
8102;SDS011;4094;49.948;11.574;2023-09-08T09:27:01;4.50;;;4.10;;
8102;SDS011;4094;49.948;11.574;2023-09-08T09:29:34;4.67;;;4.27;;
8102;SDS011;4094;49.948;11.574;2023-09-08T09:32:13;4.47;;;3.80;;
8102;SDS011;4094;49.948;11.574;2023-09-08T09:34:49;5.30;;;3.83;;
8102;SDS011;4094;49.948;11.574;2023-09-08T09:37:21;3.80;;;3.40;;
8102;SDS011;4094;49.948;11.574;2023-09-08T09:39:50;4.10;;;3.80;;
8102;SDS011;4094;49.948;11.574;2023-09-08T09:42:20;4.37;;;3.97;;
8102;SDS011;4094;49.948;11.574;2023-09-08T09:44:51;4.30;;;4.00;;
8102;SDS011;4094;49.948;11.574;2023-09-08T09:47:21;4.33;;;4.03;;
8102;SDS011;4094;49.948;11.574;2023-09-08T09:49:50;4.47;;;3.90;;
8102;SDS011;4094;49.948;11.574;2023-09-08T09:52:20;4.47;;;4.07;;
8102;SDS011;4094;49.948;11.574;2023-09-08T09:54:50;4.57;;;3.90;;
8102;SDS011;4094;49.948;11.574;2023-09-08T09:57:21;4.57;;;3.83;;
8102;SDS011;4094;49.948;11.574;2023-09-08T09:59:51;4.40;;;4.00;;
8102;SDS011;4094;49.948;11.574;2023-09-08T10:02:23;5.07;;;3.70;;
8102;SDS011;4094;49.948;11.574;2023-09-08T10:04:53;3.90;;;3.53;;
8102;SDS011;4094;49.948;11.574;2023-09-08T10:07:22;4.50;;;4.10;;
8102;SDS011;4094;49.948;11.574;2023-09-08T10:09:52;4.20;;;3.80;;
8102;SDS011;4094;49.948;11.574;2023-09-08T10:12:21;4.47;;;4.07;;
8102;SDS011;4094;49.948;11.574;2023-09-08T10:14:52;4.40;;;4.00;;
8102;SDS011;4094;49.948;11.574;2023-09-08T10:17:25;7.03;;;3.73;;
8102;SDS011;4094;49.948;11.574;2023-09-08T10:19:59;5.00;;;3.90;;
8102;SDS011;4094;49.948;11.574;2023-09-08T10:22:36;7.23;;;3.87;;
8102;SDS011;4094;49.948;11.574;2023-09-08T10:25:07;4.20;;;3.90;;
8102;SDS011;4094;49.948;11.574;2023-09-08T10:27:40;4.33;;;3.70;;
8102;SDS011;4094;49.948;11.574;2023-09-08T10:30:09;3.70;;;3.40;;
8102;SDS011;4094;49.948;11.574;2023-09-08T10:32:45;3.73;;;3.43;;
8102;SDS011;4094;49.948;11.574;2023-09-08T10:35:14;6.83;;;4.10;;
8102;SDS011;4094;49.948;11.574;2023-09-08T10:37:46;4.30;;;3.90;;
8102;SDS011;4094;49.948;11.574;2023-09-08T10:40:22;6.23;;;3.70;;
8102;SDS011;4094;49.948;11.574;2023-09-08T10:43:05;3.67;;;3.33;;
8102;SDS011;4094;49.948;11.574;2023-09-08T10:45:35;3.93;;;3.63;;
8102;SDS011;4094;49.948;11.574;2023-09-08T10:48:05;4.13;;;3.27;;
8102;SDS011;4094;49.948;11.574;2023-09-08T10:50:35;4.97;;;3.57;;
8102;SDS011;4094;49.948;11.574;2023-09-08T10:53:09;3.77;;;3.47;;
8102;SDS011;4094;49.948;11.574;2023-09-08T10:55:45;4.50;;;4.10;;
8102;SDS011;4094;49.948;11.574;2023-09-08T10:58:29;3.90;;;3.53;;
8102;SDS011;4094;49.948;11.574;2023-09-08T11:01:00;4.20;;;3.10;;
8102;SDS011;4094;49.948;11.574;2023-09-08T11:03:46;4.07;;;3.30;;
8102;SDS011;4094;49.948;11.574;2023-09-08T11:06:18;4.63;;;3.83;;
8102;SDS011;4094;49.948;11.574;2023-09-08T11:08:50;4.30;;;3.80;;
8102;SDS011;4094;49.948;11.574;2023-09-08T11:11:24;3.80;;;3.50;;
8102;SDS011;4094;49.948;11.574;2023-09-08T11:13:54;3.90;;;3.50;;
8102;SDS011;4094;49.948;11.574;2023-09-08T11:16:24;5.90;;;3.83;;
8102;SDS011;4094;49.948;11.574;2023-09-08T11:19:00;4.07;;;3.60;;
8102;SDS011;4094;49.948;11.574;2023-09-08T11:21:32;4.13;;;3.53;;
8102;SDS011;4094;49.948;11.574;2023-09-08T11:24:03;4.53;;;3.43;;
8102;SDS011;4094;49.948;11.574;2023-09-08T11:26:34;4.77;;;3.27;;
8102;SDS011;4094;49.948;11.574;2023-09-08T11:29:04;4.00;;;3.70;;
8102;SDS011;4094;49.948;11.574;2023-09-08T11:31:34;4.00;;;3.60;;
8102;SDS011;4094;49.948;11.574;2023-09-08T11:34:05;4.23;;;3.83;;
8102;SDS011;4094;49.948;11.574;2023-09-08T11:36:34;4.37;;;3.63;;
8102;SDS011;4094;49.948;11.574;2023-09-08T11:39:04;5.23;;;3.70;;
8102;SDS011;4094;49.948;11.574;2023-09-08T11:41:35;4.40;;;3.37;;
8102;SDS011;4094;49.948;11.574;2023-09-08T11:44:04;4.43;;;3.40;;
8102;SDS011;4094;49.948;11.574;2023-09-08T11:46:33;4.40;;;3.87;;
8102;SDS011;4094;49.948;11.574;2023-09-08T11:49:05;4.07;;;3.40;;
8102;SDS011;4094;49.948;11.574;2023-09-08T11:51:34;3.97;;;3.20;;
8102;SDS011;4094;49.948;11.574;2023-09-08T11:54:05;3.73;;;3.43;;
8102;SDS011;4094;49.948;11.574;2023-09-08T11:56:34;3.53;;;3.23;;
8102;SDS011;4094;49.948;11.574;2023-09-08T11:59:07;4.73;;;3.30;;
8102;SDS011;4094;49.948;11.574;2023-09-08T12:01:37;3.27;;;2.97;;
8102;SDS011;4094;49.948;11.574;2023-09-08T12:04:08;3.37;;;2.97;;
8102;SDS011;4094;49.948;11.574;2023-09-08T12:06:46;3.47;;;3.17;;
8102;SDS011;4094;49.948;11.574;2023-09-08T12:09:16;4.27;;;3.40;;
8102;SDS011;4094;49.948;11.574;2023-09-08T12:11:45;6.53;;;3.30;;
8102;SDS011;4094;49.948;11.574;2023-09-08T12:14:15;3.93;;;3.50;;
8102;SDS011;4094;49.948;11.574;2023-09-08T12:16:45;3.30;;;3.00;;
8102;SDS011;4094;49.948;11.574;2023-09-08T12:19:31;5.40;;;2.80;;
8102;SDS011;4094;49.948;11.574;2023-09-08T12:22:01;3.70;;;2.80;;
8102;SDS011;4094;49.948;11.574;2023-09-08T12:24:47;2.73;;;2.53;;
8102;SDS011;4094;49.948;11.574;2023-09-08T12:27:18;3.17;;;2.90;;
8102;SDS011;4094;49.948;11.574;2023-09-08T12:29:54;3.77;;;3.00;;
8102;SDS011;4094;49.948;11.574;2023-09-08T12:32:28;3.40;;;3.13;;
8102;SDS011;4094;49.948;11.574;2023-09-08T12:35:00;3.30;;;3.00;;
8102;SDS011;4094;49.948;11.574;2023-09-08T12:37:32;3.30;;;2.90;;
8102;SDS011;4094;49.948;11.574;2023-09-08T12:40:03;3.43;;;3.10;;
8102;SDS011;4094;49.948;11.574;2023-09-08T12:42:33;3.25;;;2.58;;
8102;SDS011;4094;49.948;11.574;2023-09-08T12:45:08;3.15;;;2.63;;
8102;SDS011;4094;49.948;11.574;2023-09-08T12:47:38;3.20;;;2.10;;
8102;SDS011;4094;49.948;11.574;2023-09-08T12:50:09;3.40;;;2.10;;
8102;SDS011;4094;49.948;11.574;2023-09-08T12:52:40;4.30;;;2.53;;
8102;SDS011;4094;49.948;11.574;2023-09-08T12:55:11;3.33;;;2.22;;
8102;SDS011;4094;49.948;11.574;2023-09-08T12:57:40;3.00;;;2.50;;
8102;SDS011;4094;49.948;11.574;2023-09-08T13:00:10;2.55;;;2.30;;
8102;SDS011;4094;49.948;11.574;2023-09-08T13:02:40;3.10;;;2.80;;
8102;SDS011;4094;49.948;11.574;2023-09-08T13:05:11;3.20;;;2.90;;
8102;SDS011;4094;49.948;11.574;2023-09-08T13:07:40;3.37;;;2.60;;
8102;SDS011;4094;49.948;11.574;2023-09-08T13:10:09;2.60;;;2.40;;
8102;SDS011;4094;49.948;11.574;2023-09-08T13:12:40;2.90;;;2.70;;
8102;SDS011;4094;49.948;11.574;2023-09-08T13:15:10;3.07;;;2.63;;
8102;SDS011;4094;49.948;11.574;2023-09-08T13:17:39;4.30;;;3.07;;
8102;SDS011;4094;49.948;11.574;2023-09-08T13:20:09;3.30;;;2.43;;
8102;SDS011;4094;49.948;11.574;2023-09-08T13:22:41;3.53;;;2.80;;
8102;SDS011;4094;49.948;11.574;2023-09-08T13:25:11;3.30;;;3.00;;
8102;SDS011;4094;49.948;11.574;2023-09-08T13:27:41;3.53;;;3.17;;
8102;SDS011;4094;49.948;11.574;2023-09-08T13:30:11;3.87;;;3.17;;
8102;SDS011;4094;49.948;11.574;2023-09-08T13:32:42;3.23;;;2.93;;
8102;SDS011;4094;49.948;11.574;2023-09-08T13:35:13;3.20;;;3.00;;
8102;SDS011;4094;49.948;11.574;2023-09-08T13:37:44;3.53;;;2.67;;
8102;SDS011;4094;49.948;11.574;2023-09-08T13:40:13;3.40;;;3.10;;
8102;SDS011;4094;49.948;11.574;2023-09-08T13:42:42;3.97;;;3.07;;
8102;SDS011;4094;49.948;11.574;2023-09-08T13:45:12;3.10;;;2.80;;
8102;SDS011;4094;49.948;11.574;2023-09-08T13:47:41;3.83;;;2.97;;
8102;SDS011;4094;49.948;11.574;2023-09-08T13:50:12;3.63;;;3.17;;
8102;SDS011;4094;49.948;11.574;2023-09-08T13:52:45;5.30;;;3.17;;
8102;SDS011;4094;49.948;11.574;2023-09-08T13:55:16;3.40;;;3.10;;
8102;SDS011;4094;49.948;11.574;2023-09-08T13:58:04;3.20;;;2.90;;
8102;SDS011;4094;49.948;11.574;2023-09-08T14:00:36;3.90;;;3.00;;
8102;SDS011;4094;49.948;11.574;2023-09-08T14:03:11;6.40;;;3.20;;
8102;SDS011;4094;49.948;11.574;2023-09-08T14:05:42;3.47;;;3.17;;
8102;SDS011;4094;49.948;11.574;2023-09-08T14:08:14;3.60;;;3.30;;
8102;SDS011;4094;49.948;11.574;2023-09-08T14:11:02;5.53;;;3.43;;
8102;SDS011;4094;49.948;11.574;2023-09-08T14:13:42;6.50;;;3.30;;
8102;SDS011;4094;49.948;11.574;2023-09-08T14:16:12;3.30;;;3.00;;
8102;SDS011;4094;49.948;11.574;2023-09-08T14:18:41;3.83;;;3.20;;
8102;SDS011;4094;49.948;11.574;2023-09-08T14:21:10;3.73;;;2.80;;
8102;SDS011;4094;49.948;11.574;2023-09-08T14:23:40;2.90;;;2.70;;
8102;SDS011;4094;49.948;11.574;2023-09-08T14:26:09;4.70;;;3.07;;
8102;SDS011;4094;49.948;11.574;2023-09-08T14:28:38;3.60;;;2.87;;
8102;SDS011;4094;49.948;11.574;2023-09-08T14:31:07;3.10;;;2.80;;
8102;SDS011;4094;49.948;11.574;2023-09-08T14:33:37;4.23;;;3.07;;
8102;SDS011;4094;49.948;11.574;2023-09-08T14:36:06;3.83;;;2.73;;
8102;SDS011;4094;49.948;11.574;2023-09-08T14:38:35;4.87;;;2.57;;
8102;SDS011;4094;49.948;11.574;2023-09-08T14:41:07;3.60;;;3.20;;
8102;SDS011;4094;49.948;11.574;2023-09-08T14:43:36;3.23;;;2.93;;
8102;SDS011;4094;49.948;11.574;2023-09-08T14:46:05;2.83;;;2.53;;
8102;SDS011;4094;49.948;11.574;2023-09-08T14:48:35;2.80;;;2.60;;
8102;SDS011;4094;49.948;11.574;2023-09-08T14:51:04;4.13;;;3.00;;
8102;SDS011;4094;49.948;11.574;2023-09-08T14:53:33;2.97;;;2.60;;
8102;SDS011;4094;49.948;11.574;2023-09-08T14:56:03;3.73;;;2.53;;
8102;SDS011;4094;49.948;11.574;2023-09-08T14:58:33;3.10;;;2.70;;
8102;SDS011;4094;49.948;11.574;2023-09-08T15:01:03;3.03;;;2.60;;
8102;SDS011;4094;49.948;11.574;2023-09-08T15:03:34;2.87;;;2.67;;
8102;SDS011;4094;49.948;11.574;2023-09-08T15:06:04;2.90;;;2.70;;
8102;SDS011;4094;49.948;11.574;2023-09-08T15:08:35;3.10;;;2.80;;
8102;SDS011;4094;49.948;11.574;2023-09-08T15:11:04;3.10;;;2.70;;
8102;SDS011;4094;49.948;11.574;2023-09-08T15:13:35;3.90;;;2.70;;
8102;SDS011;4094;49.948;11.574;2023-09-08T15:16:04;4.83;;;2.80;;
8102;SDS011;4094;49.948;11.574;2023-09-08T15:18:35;3.47;;;2.70;;
8102;SDS011;4094;49.948;11.574;2023-09-08T15:21:04;2.90;;;2.70;;